ADDS METAR Data INFO
IDs: Format: Raw Decoded Include TAF

Data at: 0218 UTC 18 Jan 2018

METAR for:KFMY (Fort Myers/Page Fld, FL, US)
Text:KFMY 180153Z 33012KT 9SM BKN044 12/08 A3028 RMK AO2 SLP255 T01170083
Temperature: 11.7°C ( 53°F)
Dewpoint: 8.3°C ( 47°F) [RH = 80%]
Pressure (altimeter):30.28 inches Hg (1025.5 mb) [Sea level pressure: 1025.5 mb]
Winds:from the NNW (330 degrees) at 14 MPH (12 knots; 6.2 m/s)
Visibility: 9 sm ( 14 km)
Ceiling:4400 feet AGL
Clouds: broken clouds at 4400 feet AGL